Time;durP1;ratioP1;P1;durP2;ratioP2;P2;SDS_P1;SDS_P2;PMS_P1;PMS_P2;Temp;Humidity;BMP_temperature;BMP_pressure;BME280_temperature;BME280_humidity;BME280_pressure;Samples;Min_cycle;Max_cycle;Signal;HPM_P1;HPM_P2
2023/04/12 00:02:07;;;;;;;17.23;9.77;;;;;;;9.81;80.89;94264.59;5014067;28;20628;-73
2023/04/12 00:04:34;;;;;;;16.43;9.40;;;;;;;9.87;80.72;94266.34;5015456;28;20697;-73
2023/04/12 00:07:01;;;;;;;17.13;9.67;;;;;;;9.90;80.42;94256.28;5003188;28;20230;-74
2023/04/12 00:09:29;;;;;;;20.57;9.90;;;;;;;9.84;80.45;94262.34;5024607;28;20260;-73
2023/04/12 00:11:58;;;;;;;16.93;9.80;;;;;;;9.84;80.55;94258.94;5016645;28;20325;-74
2023/04/12 00:14:25;;;;;;;17.63;10.00;;;;;;;9.86;80.71;94252.47;5016134;28;20236;-74
2023/04/12 00:16:50;;;;;;;18.53;9.70;;;;;;;9.84;80.79;94258.94;5005735;28;20234;-74
2023/04/12 00:19:16;;;;;;;18.77;10.57;;;;;;;9.88;80.60;94252.28;5029068;28;20240;-73
2023/04/12 00:21:42;;;;;;;17.30;10.23;;;;;;;9.85;80.93;94258.72;5032119;28;21525;-74
2023/04/12 00:24:08;;;;;;;17.93;10.10;;;;;;;9.90;80.43;94245.03;5035088;28;20677;-74
2023/04/12 00:26:33;;;;;;;18.77;10.43;;;;;;;9.87;80.77;94243.63;5000995;28;20229;-74
2023/04/12 00:28:59;;;;;;;18.77;10.13;;;;;;;9.85;80.67;94250.88;5019699;28;20241;-74
2023/04/12 00:31:24;;;;;;;17.07;9.97;;;;;;;9.87;80.09;94250.66;5018298;28;20313;-74
2023/04/12 00:33:50;;;;;;;19.37;9.97;;;;;;;9.85;80.59;94253.50;5042980;28;20268;-74
2023/04/12 00:36:15;;;;;;;19.63;10.60;;;;;;;9.87;80.08;94246.25;5024193;28;20240;-75
2023/04/12 00:38:41;;;;;;;17.83;10.10;;;;;;;9.79;80.98;94243.09;5025483;28;20827;-75
2023/04/12 00:41:07;;;;;;;20.07;10.40;;;;;;;9.87;80.59;94248.84;5012468;28;20238;-74
2023/04/12 00:43:32;;;;;;;17.60;9.80;;;;;;;9.83;80.33;94249.50;5014280;28;20226;-74
2023/04/12 00:45:58;;;;;;;17.47;10.13;;;;;;;9.84;80.65;94245.88;5031401;28;20247;-74
2023/04/12 00:48:25;;;;;;;19.00;10.67;;;;;;;9.82;80.49;94238.22;4999706;28;20677;-74
2023/04/12 00:50:54;;;;;;;21.00;10.60;;;;;;;9.82;80.49;94242.66;4999402;28;20281;-74
2023/04/12 00:53:20;;;;;;;18.87;10.33;;;;;;;9.86;80.54;94233.41;4997504;28;20313;-74
2023/04/12 00:55:46;;;;;;;19.97;11.37;;;;;;;9.82;80.82;94232.19;5004978;28;20265;-74
2023/04/12 00:58:13;;;;;;;18.87;10.37;;;;;;;9.75;81.11;94240.09;4986813;28;20681;-74
2023/04/12 01:00:38;;;;;;;19.27;10.80;;;;;;;9.79;80.52;94235.25;4987781;28;20238;-75
2023/04/12 01:03:04;;;;;;;20.03;10.83;;;;;;;9.77;80.64;94226.81;5011286;28;20234;-74
2023/04/12 01:05:29;;;;;;;19.23;10.57;;;;;;;9.76;80.54;94223.41;5014458;28;20234;-74
2023/04/12 01:08:23;;;;;;;21.30;10.80;;;;;;;9.74;80.80;94224.63;5011127;28;20228;-73
2023/04/12 01:11:17;;;;;;;20.30;10.77;;;;;;;9.75;81.71;94228.84;5006861;28;20338;-74
2023/04/12 01:14:07;;;;;;;19.97;11.00;;;;;;;9.68;81.12;94226.28;5026256;28;20249;-74
2023/04/12 01:16:49;;;;;;;21.40;10.90;;;;;;;9.76;81.31;94233.06;5012167;28;20246;-74
2023/04/12 01:19:30;;;;;;;22.80;11.00;;;;;;;9.68;80.89;94228.06;5035106;28;20310;-74
2023/04/12 01:21:59;;;;;;;20.53;11.20;;;;;;;9.73;80.89;94228.25;5036434;28;20229;-73
2023/04/12 01:24:37;;;;;;;23.87;11.23;;;;;;;9.70;81.15;94223.44;5027484;28;20614;-74
2023/04/12 01:27:03;;;;;;;23.23;11.37;;;;;;;9.73;80.69;94225.63;5023779;28;20233;-74
2023/04/12 01:29:29;;;;;;;19.20;11.03;;;;;;;9.74;80.88;94222.03;5022992;28;21100;-74
2023/04/12 01:32:00;;;;;;;22.07;10.90;;;;;;;9.72;81.43;94219.59;5029762;28;20233;-74
2023/04/12 01:34:27;;;;;;;21.07;11.13;;;;;;;9.75;80.90;94221.00;5030736;28;20347;-74
2023/04/12 01:36:52;;;;;;;19.90;11.23;;;;;;;9.66;81.30;94219.66;5023380;28;20230;-73
2023/04/12 01:39:18;;;;;;;20.63;10.80;;;;;;;9.64;81.59;94219.88;5007513;28;20260;-73
2023/04/12 01:41:47;;;;;;;21.40;11.27;;;;;;;9.69;81.54;94227.88;5015690;28;20233;-73
2023/04/12 01:44:16;;;;;;;21.17;12.10;;;;;;;9.55;82.43;94215.91;5016196;28;20237;-74
2023/04/12 01:46:46;;;;;;;21.67;11.77;;;;;;;9.60;82.19;94223.13;5031067;28;20325;-73
2023/04/12 01:49:12;;;;;;;20.17;11.53;;;;;;;9.56;82.52;94220.13;4997700;28;20225;-74
2023/04/12 01:52:02;;;;;;;21.87;12.13;;;;;;;9.58;82.79;94212.09;5012774;28;20819;-74
2023/04/12 01:54:29;;;;;;;23.83;12.17;;;;;;;9.55;82.56;94208.09;5029046;28;20350;-74
2023/04/12 01:57:00;;;;;;;22.57;11.63;;;;;;;9.54;82.60;94211.69;4999701;28;20230;-74
2023/04/12 01:59:26;;;;;;;23.40;11.83;;;;;;;9.52;83.24;94207.69;5019649;28;20241;-73
2023/04/12 02:01:52;;;;;;;24.73;12.17;;;;;;;9.54;83.04;94209.09;5024622;28;20715;-73
2023/04/12 02:04:17;;;;;;;24.73;12.57;;;;;;;9.46;83.63;94204.91;4999209;28;20244;-74
2023/04/12 02:06:43;;;;;;;26.40;11.93;;;;;;;9.56;83.39;94207.06;5018103;28;20266;-75
2023/04/12 02:09:09;;;;;;;23.40;11.93;;;;;;;9.55;83.50;94209.88;4998854;28;20322;-74
2023/04/12 02:11:34;;;;;;;25.10;12.70;;;;;;;9.54;83.17;94211.69;5002977;28;20298;-74
2023/04/12 02:14:00;;;;;;;24.77;12.00;;;;;;;9.52;83.59;94207.69;5005078;28;20321;-74
2023/04/12 02:16:27;;;;;;;25.53;12.50;;;;;;;9.46;83.42;94202.28;5018326;28;20316;-74
2023/04/12 02:18:54;;;;;;;24.60;11.93;;;;;;;9.45;83.40;94202.50;5020492;28;20311;-75
2023/04/12 02:21:20;;;;;;;24.73;12.13;;;;;;;9.42;82.98;94206.34;5012663;28;20237;-73
2023/04/12 02:23:45;;;;;;;21.47;11.50;;;;;;;9.42;83.10;94203.72;5031800;28;20246;-74
2023/04/12 02:26:11;;;;;;;21.90;11.60;;;;;;;9.47;83.16;94208.31;5036694;28;20257;-74
2023/04/12 02:28:40;;;;;;;24.80;12.53;;;;;;;9.42;82.74;94201.13;5018155;28;20233;-74
2023/04/12 02:31:06;;;;;;;27.57;12.57;;;;;;;9.44;83.09;94209.53;5019552;28;20256;-73
2023/04/12 02:33:32;;;;;;;25.07;12.50;;;;;;;9.49;82.85;94212.31;5002560;28;20295;-74
2023/04/12 02:35:58;;;;;;;22.70;12.47;;;;;;;9.45;82.81;94210.34;5016185;28;20237;-75
2023/04/12 02:38:23;;;;;;;23.47;12.07;;;;;;;9.46;83.04;94206.72;5024636;28;20257;-75
2023/04/12 02:40:49;;;;;;;25.37;12.80;;;;;;;9.48;82.94;94204.72;5016928;28;20604;-74
2023/04/12 02:43:15;;;;;;;26.97;12.47;;;;;;;9.43;82.64;94213.16;5016061;28;20233;-74
2023/04/12 02:45:41;;;;;;;24.07;12.07;;;;;;;9.34;83.56;94206.56;5006978;28;20307;-74
2023/04/12 02:48:06;;;;;;;24.50;12.47;;;;;;;9.35;83.08;94202.16;5016695;28;20284;-74
2023/04/12 02:50:31;;;;;;;27.40;12.83;;;;;;;9.44;82.84;94200.91;5033555;28;20226;-75
2023/04/12 02:52:57;;;;;;;23.07;12.07;;;;;;;9.43;83.14;94199.31;5003648;28;20241;-74
2023/04/12 02:55:24;;;;;;;23.43;12.03;;;;;;;9.40;82.77;94195.31;5029275;28;20242;-74
2023/04/12 02:57:50;;;;;;;22.17;11.97;;;;;;;9.46;83.25;94196.25;5003960;28;20376;-73
2023/04/12 03:00:15;;;;;;;21.77;12.00;;;;;;;9.36;82.87;94196.72;5020886;28;20230;-73
2023/04/12 03:02:41;;;;;;;24.07;12.20;;;;;;;9.37;82.70;94198.31;5016663;28;21001;-74
2023/04/12 03:05:07;;;;;;;24.63;11.73;;;;;;;9.46;82.30;94197.06;5035717;28;21015;-74
2023/04/12 03:07:33;;;;;;;22.80;11.43;;;;;;;9.44;82.52;94198.28;5031538;28;21128;-74
2023/04/12 03:09:58;;;;;;;22.80;12.47;;;;;;;9.53;82.71;94193.63;5023244;28;20260;-75
2023/04/12 03:12:24;;;;;;;23.67;12.50;;;;;;;9.47;83.63;94198.69;5017059;28;20242;-74
2023/04/12 03:14:49;;;;;;;23.37;12.67;;;;;;;9.45;83.66;94198.09;5022948;28;20233;-73
2023/04/12 03:17:15;;;;;;;25.03;13.20;;;;;;;9.54;83.97;94203.06;5029493;28;20230;-74
2023/04/12 03:19:40;;;;;;;26.30;13.43;;;;;;;9.56;84.22;94206.25;5024686;28;20229;-73
2023/04/12 03:22:06;;;;;;;24.90;12.87;;;;;;;9.62;84.61;94201.00;5018401;28;20237;-73
2023/04/12 03:24:36;;;;;;;27.03;13.87;;;;;;;9.53;86.01;94202.25;5028810;28;20234;-74
2023/04/12 03:27:02;;;;;;;26.93;14.57;;;;;;;9.55;86.23;94200.25;5002528;28;20762;-75
2023/04/12 03:29:28;;;;;;;31.00;14.40;;;;;;;9.55;86.95;94199.44;5006911;28;20238;-74
2023/04/12 03:31:53;;;;;;;28.90;14.37;;;;;;;9.65;85.81;94205.00;5001258;28;20322;-74
2023/04/12 03:34:19;;;;;;;28.67;14.57;;;;;;;9.68;85.69;94202.75;5017829;28;20655;-73
2023/04/12 03:36:45;;;;;;;26.90;14.60;;;;;;;9.65;86.18;94205.00;5013750;28;20273;-74
2023/04/12 03:39:10;;;;;;;29.13;14.60;;;;;;;9.76;85.57;94204.31;5028533;28;20247;-74
2023/04/12 03:41:36;;;;;;;28.33;14.33;;;;;;;9.74;85.49;94203.72;5015220;28;20233;-74
2023/04/12 03:44:01;;;;;;;33.90;16.40;;;;;;;9.72;85.72;94203.16;5015687;28;21013;-75
2023/04/12 03:46:27;;;;;;;30.20;15.93;;;;;;;9.64;85.83;94208.63;5005374;28;20288;-75
2023/04/12 03:48:52;;;;;;;27.40;15.30;;;;;;;9.75;85.55;94208.72;5008123;28;20292;-75
2023/04/12 03:51:20;;;;;;;32.63;15.97;;;;;;;9.74;84.81;94214.19;5002510;28;20275;-73
2023/04/12 03:53:46;;;;;;;33.73;15.60;;;;;;;9.73;84.42;94209.97;5006062;28;20773;-74
2023/04/12 03:56:12;;;;;;;27.80;14.77;;;;;;;9.66;85.62;94217.03;5028473;28;20241;-74
2023/04/12 03:58:37;;;;;;;30.03;16.00;;;;;;;9.69;84.48;94219.25;5032392;28;20242;-73
2023/04/12 04:01:04;;;;;;;26.80;15.10;;;;;;;9.67;84.62;94219.47;5023397;28;20627;-73
2023/04/12 04:03:33;;;;;;;31.90;15.47;;;;;;;9.71;84.61;94209.38;5008434;28;20225;-73
2023/04/12 04:06:02;;;;;;;28.70;15.10;;;;;;;9.69;84.39;94214.00;4997891;28;20730;-73
2023/04/12 04:08:28;;;;;;;29.90;15.07;;;;;;;9.69;84.06;94219.25;4996965;28;20234;-73
2023/04/12 04:10:58;;;;;;;28.07;14.87;;;;;;;9.67;84.43;94218.66;5015472;28;20284;-73
2023/04/12 04:13:24;;;;;;;28.70;15.40;;;;;;;9.81;83.82;94220.16;5014981;28;20233;-74
2023/04/12 04:15:50;;;;;;;30.47;15.57;;;;;;;9.84;83.71;94219.75;5016844;28;20292;-73
2023/04/12 04:18:16;;;;;;;28.80;15.20;;;;;;;9.82;84.27;94232.19;5007113;28;20243;-74
2023/04/12 04:20:41;;;;;;;30.70;15.30;;;;;;;9.86;84.03;94241.25;5014096;28;20741;-74
2023/04/12 04:23:09;;;;;;;31.73;15.57;;;;;;;9.83;84.01;94247.69;5002442;28;20241;-74
2023/04/12 04:25:38;;;;;;;29.13;15.40;;;;;;;9.75;84.26;94247.13;5000024;28;20664;-74
2023/04/12 04:28:05;;;;;;;33.70;15.37;;;;;;;9.75;83.83;94254.97;5011545;28;20233;-75
2023/04/12 04:30:32;;;;;;;28.77;14.63;;;;;;;9.86;83.74;94257.69;5018701;28;20226;-75
2023/04/12 04:32:58;;;;;;;28.50;15.40;;;;;;;9.81;83.91;94265.41;5029161;28;20328;-73
2023/04/12 04:35:24;;;;;;;32.53;15.33;;;;;;;9.77;83.36;94266.00;5009093;28;20944;-74
2023/04/12 04:37:51;;;;;;;30.23;15.00;;;;;;;9.69;83.41;94259.22;5014246;28;20233;-72
2023/04/12 04:40:20;;;;;;;27.27;15.00;;;;;;;9.84;83.22;94272.78;5004350;28;20606;-73
2023/04/12 04:42:53;;;;;;;30.10;15.57;;;;;;;9.74;83.51;94266.44;5016959;28;20233;-74
2023/04/12 04:45:25;;;;;;;31.17;14.87;;;;;;;9.63;83.30;94270.50;5023917;28;20391;-73
2023/04/12 04:47:52;;;;;;;29.57;15.17;;;;;;;9.70;83.12;94271.28;5032199;28;20295;-73
2023/04/12 04:50:17;;;;;;;28.83;14.87;;;;;;;9.85;82.84;94273.59;5030176;28;20225;-73
2023/04/12 04:52:43;;;;;;;29.87;14.60;;;;;;;9.83;82.38;94276.44;5028086;28;20264;-74
2023/04/12 04:55:09;;;;;;;30.97;15.47;;;;;;;9.83;81.88;94279.06;5021806;28;20237;-74
2023/04/12 04:57:35;;;;;;;28.03;14.73;;;;;;;9.83;82.31;94273.00;5015605;28;20230;-74
2023/04/12 05:00:09;;;;;;;29.17;15.07;;;;;;;9.80;81.25;94274.22;5031093;28;20280;-74
2023/04/12 05:02:35;;;;;;;30.73;14.23;;;;;;;9.81;81.40;94272.44;5030807;28;20673;-74
2023/04/12 05:05:03;;;;;;;25.60;14.03;;;;;;;9.88;79.96;94287.06;4992955;28;20233;-73
2023/04/12 05:07:28;;;;;;;26.20;14.00;;;;;;;9.82;80.77;94281.84;5029262;28;20262;-75
2023/04/12 05:09:54;;;;;;;24.23;13.17;;;;;;;9.90;80.50;94292.06;5012952;28;20238;-74
2023/04/12 05:12:20;;;;;;;23.60;13.50;;;;;;;9.90;79.82;94286.84;5014121;28;20649;-73
2023/04/12 05:14:45;;;;;;;23.87;12.90;;;;;;;9.86;79.40;94301.34;5030351;28;20267;-73
2023/04/12 05:17:13;;;;;;;25.60;12.53;;;;;;;9.87;79.53;94295.09;5029731;28;20320;-75
2023/04/12 05:19:40;;;;;;;24.57;12.77;;;;;;;9.93;79.17;94300.31;4999254;28;20448;-76
2023/04/12 05:22:09;;;;;;;21.90;11.67;;;;;;;9.83;78.16;94297.34;5001930;28;20295;-75
2023/04/12 05:24:34;;;;;;;20.03;11.37;;;;;;;9.91;78.50;94297.06;5019359;28;20256;-75
2023/04/12 05:27:00;;;;;;;21.33;11.47;;;;;;;10.04;77.61;94297.00;5012872;28;20246;-74
2023/04/12 05:29:26;;;;;;;22.27;11.50;;;;;;;10.07;76.73;94306.25;5029934;28;20797;-74
2023/04/12 05:31:51;;;;;;;19.90;10.37;;;;;;;10.08;76.22;94307.81;5002695;28;20229;-74
2023/04/12 05:34:17;;;;;;;24.23;10.67;;;;;;;10.11;75.94;94302.19;5002741;28;20225;-75
2023/04/12 05:36:42;;;;;;;18.77;9.87;;;;;;;10.09;75.79;94301.59;5014899;28;20242;-73
2023/04/12 05:39:08;;;;;;;19.23;9.93;;;;;;;10.13;74.89;94308.84;5020822;28;20239;-75
2023/04/12 05:41:33;;;;;;;17.23;9.23;;;;;;;10.07;75.15;94314.88;5030424;28;20273;-74
2023/04/12 05:43:59;;;;;;;19.53;9.77;;;;;;;10.09;75.11;94312.88;5013123;28;20244;-75
2023/04/12 05:46:25;;;;;;;17.00;9.63;;;;;;;10.15;74.83;94304.19;5015843;28;21061;-75
2023/04/12 05:48:50;;;;;;;18.77;9.10;;;;;;;10.24;74.13;94309.19;5030023;28;20226;-75
2023/04/12 05:51:16;;;;;;;17.23;9.07;;;;;;;10.30;73.52;94311.72;5033511;28;20285;-75
2023/04/12 05:53:41;;;;;;;14.70;8.53;;;;;;;10.26;73.08;94307.94;5002205;28;20232;-74
2023/04/12 05:56:07;;;;;;;15.23;8.20;;;;;;;10.11;72.64;94310.03;5032195;28;20225;-75
2023/04/12 05:58:33;;;;;;;14.43;7.70;;;;;;;10.06;72.22;94312.47;5019468;28;20603;-76
2023/04/12 06:00:58;;;;;;;12.93;7.40;;;;;;;10.21;71.71;94309.59;5026101;28;20230;-76
2023/04/12 06:03:24;;;;;;;12.87;7.43;;;;;;;10.29;70.88;94319.81;5020847;28;20234;-75
2023/04/12 06:05:51;;;;;;;13.77;7.43;;;;;;;10.34;71.58;94312.13;5018852;28;20237;-76
2023/04/12 06:08:17;;;;;;;13.70;6.97;;;;;;;10.06;71.24;94315.88;5019572;28;20311;-74
2023/04/12 06:10:43;;;;;;;14.83;7.37;;;;;;;10.08;72.04;94326.13;5018414;28;20234;-73
2023/04/12 06:13:11;;;;;;;14.03;7.00;;;;;;;10.02;71.80;94335.63;5016297;28;20614;-75
2023/04/12 06:15:36;;;;;;;14.17;7.13;;;;;;;10.06;71.55;94336.81;5017599;28;20234;-74
2023/04/12 06:18:02;;;;;;;13.63;7.03;;;;;;;10.05;71.91;94334.41;5032695;28;20257;-75
2023/04/12 06:20:27;;;;;;;13.00;6.80;;;;;;;10.01;72.09;94339.25;5034455;28;20238;-73
2023/04/12 06:22:53;;;;;;;13.43;6.83;;;;;;;9.96;72.40;94349.53;5033235;28;20245;-75
2023/04/12 06:25:19;;;;;;;11.53;6.47;;;;;;;9.94;72.25;94346.31;5018191;28;20828;-74
2023/04/12 06:27:44;;;;;;;18.93;7.50;;;;;;;9.94;74.38;94345.50;5025922;28;20236;-75
2023/04/12 06:30:10;;;;;;;14.20;6.50;;;;;;;9.95;74.70;94342.72;5028759;28;20257;-74
2023/04/12 06:32:37;;;;;;;13.33;6.60;;;;;;;9.83;75.52;94339.16;5032135;28;20253;-74
2023/04/12 06:35:06;;;;;;;11.53;6.37;;;;;;;9.85;75.32;94334.53;5008422;28;20634;-74
2023/04/12 06:37:31;;;;;;;13.63;6.53;;;;;;;10.02;74.22;94329.59;5003008;28;20234;-74
2023/04/12 06:39:57;;;;;;;10.77;6.07;;;;;;;10.07;73.20;94332.38;5034577;28;20240;-75
2023/04/12 06:42:23;;;;;;;15.83;7.27;;;;;;;9.95;73.11;94339.28;5034344;28;20291;-75
2023/04/12 06:44:48;;;;;;;12.23;6.40;;;;;;;9.99;72.14;94328.19;5030526;28;20240;-74
2023/04/12 06:47:14;;;;;;;12.93;6.83;;;;;;;10.09;72.11;94341.63;5001595;28;20304;-74
2023/04/12 06:49:40;;;;;;;14.63;5.93;;;;;;;10.22;71.61;94334.75;5017637;28;20318;-74
2023/04/12 06:52:05;;;;;;;14.90;6.00;;;;;;;10.35;71.47;94332.81;5042208;28;20756;-74
2023/04/12 06:54:31;;;;;;;9.70;5.50;;;;;;;10.39;71.46;94323.53;5004770;28;20889;-76
2023/04/12 06:56:56;;;;;;;8.70;5.00;;;;;;;10.38;70.29;94323.75;5019786;28;20311;-75
2023/04/12 06:59:22;;;;;;;10.67;5.40;;;;;;;10.45;70.21;94321.88;5022263;28;20237;-76
2023/04/12 07:01:48;;;;;;;10.20;4.80;;;;;;;10.56;69.87;94322.00;4997674;28;20618;-76
2023/04/12 07:04:13;;;;;;;7.50;5.43;;;;;;;10.48;69.86;94317.03;5007922;28;20264;-75
2023/04/12 07:06:38;;;;;;;7.90;4.77;;;;;;;10.92;69.07;94325.69;5008446;28;20251;-75
2023/04/12 07:09:04;;;;;;;10.20;4.60;;;;;;;11.04;67.75;94323.97;5010013;28;20221;-75
2023/04/12 07:11:30;;;;;;;7.77;4.70;;;;;;;11.37;66.49;94311.31;5018453;28;20238;-76
2023/04/12 07:13:57;;;;;;;8.17;4.80;;;;;;;11.95;64.67;94320.31;5034779;28;20284;-74
2023/04/12 07:16:24;;;;;;;7.70;4.83;;;;;;;12.32;63.11;94322.84;5034808;28;20307;-75
2023/04/12 07:18:49;;;;;;;7.53;4.70;;;;;;;12.25;62.21;94307.19;5009157;28;20263;-73
2023/04/12 07:21:16;;;;;;;6.43;4.60;;;;;;;12.48;61.49;94307.25;4999532;28;20239;-74
2023/04/12 07:23:42;;;;;;;7.97;5.00;;;;;;;12.55;62.02;94315.00;5019584;28;20248;-75
2023/04/12 07:26:07;;;;;;;8.80;5.23;;;;;;;12.79;60.96;94303.50;5011995;28;20997;-73
2023/04/12 07:28:35;;;;;;;10.70;5.20;;;;;;;12.54;61.10;94289.75;5014272;28;20234;-73
2023/04/12 07:31:03;;;;;;;7.33;5.20;;;;;;;12.40;61.92;94307.56;5004551;28;20283;-75
2023/04/12 07:33:29;;;;;;;6.80;5.10;;;;;;;12.01;62.71;94316.00;5009233;28;20233;-76
2023/04/12 07:35:54;;;;;;;7.13;4.70;;;;;;;11.82;62.84;94307.38;5001698;28;20235;-75
2023/04/12 07:38:20;;;;;;;6.33;4.90;;;;;;;12.02;62.89;94299.25;5016281;28;20229;-75
2023/04/12 07:40:45;;;;;;;7.70;4.90;;;;;;;11.83;62.76;94311.59;5010119;28;20230;-76
2023/04/12 07:43:11;;;;;;;7.10;4.87;;;;;;;11.56;62.90;94322.63;5033744;28;21140;-76
2023/04/12 07:45:36;;;;;;;6.23;4.80;;;;;;;11.61;63.44;94307.03;5022158;28;20839;-75
2023/04/12 07:48:02;;;;;;;8.97;5.10;;;;;;;12.04;62.68;94308.47;5032232;28;20249;-74
2023/04/12 07:50:28;;;;;;;6.43;4.60;;;;;;;12.60;59.96;94299.38;5016093;28;20344;-74
2023/04/12 07:52:57;;;;;;;7.37;4.70;;;;;;;13.16;57.83;94297.00;5018065;28;20316;-75
2023/04/12 07:55:22;;;;;;;7.23;4.63;;;;;;;12.96;57.46;94293.91;5021870;28;20961;-74
2023/04/12 07:57:48;;;;;;;6.83;3.73;;;;;;;12.41;57.00;94290.78;5028076;28;20250;-75
2023/04/12 08:00:15;;;;;;;5.80;3.80;;;;;;;12.33;56.99;94288.50;5015738;28;20325;-74
2023/04/12 08:02:40;;;;;;;6.80;3.80;;;;;;;12.16;57.75;94290.97;5029803;28;20253;-75
2023/04/12 08:05:06;;;;;;;5.50;3.67;;;;;;;12.37;56.92;94286.22;5034678;28;20245;-75
2023/04/12 08:07:33;;;;;;;7.57;3.60;;;;;;;11.97;56.92;94283.38;5036123;28;20241;-74
2023/04/12 08:09:59;;;;;;;6.60;3.40;;;;;;;12.04;56.80;94266.53;5031263;28;20234;-74
2023/04/12 08:12:25;;;;;;;5.73;3.60;;;;;;;11.67;57.56;94269.44;5014696;28;20232;-75
2023/04/12 08:14:50;;;;;;;4.53;3.23;;;;;;;11.56;57.65;94270.97;5007560;28;20236;-75
2023/04/12 08:17:16;;;;;;;4.47;3.20;;;;;;;11.61;57.52;94268.50;5006118;28;20238;-74
2023/04/12 08:19:42;;;;;;;5.87;3.30;;;;;;;11.67;57.46;94269.44;5024167;28;20257;-74
2023/04/12 08:22:07;;;;;;;5.13;3.53;;;;;;;11.53;57.69;94279.31;5029871;28;20970;-74
2023/04/12 08:24:33;;;;;;;3.97;3.07;;;;;;;11.84;55.06;94276.50;5002860;28;20240;-74
2023/04/12 08:26:59;;;;;;;5.30;3.00;;;;;;;12.27;55.04;94284.16;5020971;28;20596;-76
2023/04/12 08:29:25;;;;;;;5.47;2.80;;;;;;;12.40;52.58;94277.88;5005649;28;20237;-75
2023/04/12 08:31:51;;;;;;;4.07;2.93;;;;;;;12.37;52.22;94267.84;5006729;28;20228;-75
2023/04/12 08:34:16;;;;;;;5.93;2.90;;;;;;;12.54;52.00;94271.38;5016310;28;20984;-75
2023/04/12 08:36:42;;;;;;;7.90;2.70;;;;;;;12.29;50.78;94273.44;5007349;28;20230;-76
2023/04/12 08:39:08;;;;;;;5.47;2.80;;;;;;;12.56;50.04;94287.75;5016089;28;20246;-75
2023/04/12 08:41:34;;;;;;;3.90;2.50;;;;;;;12.78;49.65;94278.25;5013155;28;20237;-74
2023/04/12 08:44:00;;;;;;;4.33;2.40;;;;;;;13.04;47.79;94288.28;5008220;28;20940;-75
2023/04/12 08:46:25;;;;;;;5.60;2.57;;;;;;;12.97;47.87;94286.84;5031883;28;20229;-75
2023/04/12 08:48:55;;;;;;;5.43;2.70;;;;;;;13.21;47.63;94306.81;5007439;28;20232;-76
2023/04/12 08:51:20;;;;;;;5.87;2.47;;;;;;;13.06;47.48;94285.50;5016637;28;20221;-74
2023/04/12 08:53:46;;;;;;;3.90;2.30;;;;;;;13.24;47.75;94288.78;5004353;28;20307;-74
2023/04/12 08:56:12;;;;;;;3.00;2.20;;;;;;;13.23;46.41;94281.13;5016046;28;20317;-75
2023/04/12 08:58:40;;;;;;;8.67;2.30;;;;;;;13.67;46.44;94272.53;5007311;28;20241;-75
2023/04/12 09:01:16;;;;;;;8.27;2.40;;;;;;;13.66;45.79;94278.81;5014843;28;20237;-74
2023/04/12 09:03:42;;;;;;;5.63;2.20;;;;;;;13.56;45.64;94268.13;4999483;28;20231;-74
2023/04/12 09:06:08;;;;;;;5.80;2.27;;;;;;;13.51;46.06;94289.06;5005849;28;20381;-75
2023/04/12 09:08:34;;;;;;;5.00;2.33;;;;;;;13.88;43.80;94286.88;5005286;28;20261;-74
2023/04/12 09:10:59;;;;;;;4.07;2.10;;;;;;;13.84;44.50;94272.59;5013492;28;20238;-74
2023/04/12 09:13:35;;;;;;;3.10;2.27;;;;;;;13.87;44.02;94266.88;5017925;28;20240;-74
2023/04/12 09:16:02;;;;;;;4.03;2.20;;;;;;;13.88;44.10;94278.97;5017721;28;21086;-74
2023/04/12 09:18:27;;;;;;;3.00;2.10;;;;;;;13.85;44.34;94266.31;5010650;28;20287;-75
2023/04/12 09:21:10;;;;;;;5.40;2.20;;;;;;;13.94;43.72;94251.75;5012742;28;20233;-74
2023/04/12 09:23:36;;;;;;;5.23;2.20;;;;;;;13.99;43.33;94262.38;5012526;28;20237;-75
2023/04/12 09:26:01;;;;;;;5.67;2.17;;;;;;;14.08;41.61;94258.31;5032278;28;20295;-75
2023/04/12 09:28:28;;;;;;;4.83;2.30;;;;;;;14.07;41.06;94268.03;5023667;28;20234;-74
2023/04/12 09:30:55;;;;;;;3.13;2.00;;;;;;;13.52;41.78;94252.00;5019216;28;20290;-75
2023/04/12 09:33:21;;;;;;;4.30;2.10;;;;;;;13.24;41.50;94256.44;5001861;28;20233;-74
2023/04/12 09:35:47;;;;;;;3.50;2.10;;;;;;;12.96;41.94;94261.59;5003440;28;20243;-74
2023/04/12 09:38:13;;;;;;;4.07;1.97;;;;;;;12.98;42.39;94247.19;5003275;28;20226;-74
2023/04/12 09:40:38;;;;;;;4.83;2.27;;;;;;;13.00;42.43;94244.31;5032642;28;20237;-74
2023/04/12 09:43:04;;;;;;;6.27;2.10;;;;;;;12.85;42.13;94247.44;5029700;28;20268;-73
2023/04/12 09:45:33;;;;;;;2.63;1.90;;;;;;;12.89;41.87;94224.94;5007287;28;20986;-74
2023/04/12 09:47:58;;;;;;;4.90;2.30;;;;;;;13.35;41.20;94229.34;5015992;28;20242;-74
2023/04/12 09:50:27;;;;;;;7.90;2.03;;;;;;;14.00;40.43;94222.66;5028627;28;20528;-73
2023/04/12 09:52:56;;;;;;;5.27;2.20;;;;;;;14.33;39.64;94207.97;5013731;28;20337;-73
2023/04/12 09:55:23;;;;;;;5.10;2.10;;;;;;;14.45;39.82;94203.41;5030010;28;20302;-76
2023/04/12 09:57:50;;;;;;;3.60;2.00;;;;;;;14.04;41.38;94207.97;5004889;28;20671;-75
2023/04/12 10:00:16;;;;;;;7.50;2.10;;;;;;;13.80;43.44;94216.25;5016685;28;20259;-75
2023/04/12 10:02:43;;;;;;;4.97;2.30;;;;;;;14.00;42.86;94204.22;5024166;28;20226;-75
2023/04/12 10:05:15;;;;;;;3.20;1.93;;;;;;;13.91;40.34;94197.78;5018990;28;21203;-75
2023/04/12 10:07:41;;;;;;;3.33;1.87;;;;;;;14.26;39.01;94202.81;5022462;28;20790;-74
2023/04/12 10:10:11;;;;;;;3.23;1.80;;;;;;;14.27;37.51;94195.72;5014574;28;20226;-73
2023/04/12 10:12:37;;;;;;;4.37;1.70;;;;;;;14.18;36.83;94190.06;5016447;28;20241;-75
2023/04/12 10:15:05;;;;;;;4.23;1.57;;;;;;;14.22;36.26;94193.81;5012524;28;20618;-74
2023/04/12 10:17:31;;;;;;;1.80;1.57;;;;;;;14.47;34.65;94190.81;5020538;28;20879;-74
2023/04/12 10:19:57;;;;;;;3.50;1.90;;;;;;;15.11;34.33;94194.56;5015695;28;20257;-74
2023/04/12 10:22:22;;;;;;;4.13;1.67;;;;;;;15.29;32.25;94188.97;5030963;28;20237;-75
2023/04/12 10:24:48;;;;;;;4.10;1.63;;;;;;;14.89;31.88;94193.75;5000780;28;20234;-75
2023/04/12 10:27:14;;;;;;;5.73;1.60;;;;;;;14.91;33.00;94187.19;5013270;28;20233;-74
2023/04/12 10:29:40;;;;;;;3.77;1.50;;;;;;;15.06;32.95;94195.31;5012530;28;20222;-73
2023/04/12 10:32:22;;;;;;;3.87;1.60;;;;;;;14.87;32.67;94207.19;4992345;28;20234;-74
2023/04/12 10:34:52;;;;;;;3.80;1.77;;;;;;;14.98;32.45;94189.66;5039401;28;20241;-75
2023/04/12 10:37:17;;;;;;;5.17;1.67;;;;;;;15.32;32.99;94180.59;5006965;28;20321;-75
2023/04/12 10:39:46;;;;;;;4.30;1.80;;;;;;;15.48;33.39;94185.81;5009655;28;20618;-74
2023/04/12 10:42:23;;;;;;;3.00;1.50;;;;;;;15.18;31.17;94174.91;5014322;28;20230;-75
2023/04/12 10:44:50;;;;;;;2.97;1.60;;;;;;;15.03;30.91;94187.06;5033554;28;20256;-74
2023/04/12 10:47:36;;;;;;;7.90;2.17;;;;;;;15.13;30.98;94184.56;5029433;28;20269;-75
2023/04/12 10:50:23;;;;;;;3.73;1.40;;;;;;;15.26;31.22;94185.00;5030425;28;20230;-75
2023/04/12 10:53:19;;;;;;;2.93;1.70;;;;;;;15.19;31.21;94165.16;5033828;28;20238;-74
2023/04/12 10:55:44;;;;;;;5.90;1.60;;;;;;;15.36;30.88;94181.69;5033767;28;20242;-74
2023/04/12 10:58:10;;;;;;;3.97;1.43;;;;;;;15.22;30.83;94164.66;5001900;28;20694;-75
2023/04/12 11:00:55;;;;;;;4.07;1.50;;;;;;;15.20;30.36;94166.72;5019225;28;20232;-74
2023/04/12 11:03:21;;;;;;;3.77;1.63;;;;;;;15.45;30.10;94156.50;5034683;28;20239;-76
2023/04/12 11:06:16;;;;;;;3.00;1.50;;;;;;;15.52;30.35;94153.69;5008605;28;20238;-76
2023/04/12 11:08:41;;;;;;;4.67;1.43;;;;;;;15.60;29.15;94154.00;5024214;28;20230;-74
2023/04/12 11:11:17;;;;;;;5.77;1.67;;;;;;;15.93;28.78;94142.47;5029924;28;20790;-75
2023/04/12 11:13:43;;;;;;;3.53;1.60;;;;;;;16.01;28.36;94148.06;5008515;28;20229;-74
2023/04/12 11:16:11;;;;;;;2.00;1.40;;;;;;;15.47;29.16;94157.88;5017692;28;20230;-75
2023/04/12 11:18:37;;;;;;;4.17;1.50;;;;;;;15.47;29.47;94157.06;5019677;28;20236;-75
2023/04/12 11:21:03;;;;;;;4.97;1.80;;;;;;;15.62;30.22;94146.66;5024351;28;20650;-75
2023/04/12 11:23:30;;;;;;;3.43;1.50;;;;;;;15.67;29.95;94136.16;5021670;28;20291;-73
2023/04/12 11:25:56;;;;;;;3.30;1.50;;;;;;;15.66;30.16;94137.22;5016859;28;20925;-74
2023/04/12 11:28:22;;;;;;;3.30;1.50;;;;;;;15.67;30.14;94133.50;5030005;28;20221;-74
2023/04/12 11:30:56;;;;;;;3.20;1.83;;;;;;;15.76;29.99;94136.50;5012200;28;20237;-75